createdAt,value
2023-02-11T00:01:21.024Z,13.27
2023-02-11T00:03:47.996Z,14.07
2023-02-11T00:06:14.913Z,10.95
2023-02-11T00:08:41.728Z,11.15
2023-02-11T00:11:15.921Z,8.57
2023-02-11T00:13:44.332Z,9.90
2023-02-11T00:16:14.093Z,14.90
2023-02-11T00:18:41.047Z,19.38
2023-02-11T00:21:13.548Z,10.43
2023-02-11T00:23:40.685Z,22.55
2023-02-11T00:26:36.893Z,11.82
2023-02-11T00:29:05.488Z,13.93
2023-02-11T00:31:32.735Z,9.88
2023-02-11T00:33:59.690Z,11.25
2023-02-11T00:36:28.644Z,18.02
2023-02-11T00:38:57.127Z,10.35
2023-02-11T00:41:24.581Z,14.88
2023-02-11T00:43:51.722Z,15.07
2023-02-11T00:46:19.566Z,14.45
2023-02-11T00:48:49.719Z,15.05
2023-02-11T00:51:16.482Z,13.48
2023-02-11T00:53:43.463Z,14.35
2023-02-11T00:56:10.423Z,15.32
2023-02-11T00:58:37.748Z,18.60
2023-02-11T01:01:05.212Z,18.00
2023-02-11T01:03:32.221Z,11.85
2023-02-11T01:05:59.022Z,11.30
2023-02-11T01:08:25.918Z,11.48
2023-02-11T01:11:00.655Z,12.70
2023-02-11T01:13:29.098Z,19.77
2023-02-11T01:15:56.455Z,17.52
2023-02-11T01:18:24.643Z,16.38
2023-02-11T01:20:52.853Z,13.77
2023-02-11T01:23:19.841Z,14.05
2023-02-11T01:25:46.857Z,24.48
2023-02-11T01:28:24.971Z,16.30
2023-02-11T01:30:53.317Z,22.33
2023-02-11T01:33:21.009Z,17.88
2023-02-11T01:35:48.026Z,12.52
2023-02-11T01:38:24.705Z,23.55
2023-02-11T01:41:02.331Z,12.20
2023-02-11T01:43:50.979Z,15.93
2023-02-11T01:46:34.844Z,12.25
2023-02-11T01:49:09.325Z,19.58
2023-02-11T01:51:41.684Z,13.95
2023-02-11T01:54:30.107Z,13.65
2023-02-11T01:57:18.474Z,11.63
2023-02-11T01:59:54.442Z,13.05
2023-02-11T02:02:27.117Z,16.45
2023-02-11T02:04:59.861Z,11.80
2023-02-11T02:07:35.950Z,12.15
2023-02-11T02:10:11.333Z,12.45
2023-02-11T02:12:38.254Z,15.30
2023-02-11T02:15:27.940Z,11.13
2023-02-11T02:18:15.851Z,12.57
2023-02-11T02:21:13.626Z,13.48
2023-02-11T02:23:50.700Z,13.82
2023-02-11T02:26:32.449Z,12.57
2023-02-11T02:29:24.831Z,15.10
2023-02-11T02:32:24.309Z,12.15
2023-02-11T02:34:58.342Z,17.95
2023-02-11T02:37:36.410Z,17.77
2023-02-11T02:40:09.676Z,13.95
2023-02-11T02:42:37.994Z,13.35
2023-02-11T02:45:06.972Z,11.73
2023-02-11T02:47:33.779Z,16.90
2023-02-11T02:50:01.097Z,12.57
2023-02-11T02:53:00.854Z,19.00
2023-02-11T02:55:48.757Z,18.92
2023-02-11T02:58:33.741Z,12.73
2023-02-11T03:01:22.464Z,13.15
2023-02-11T03:04:20.937Z,17.02
2023-02-11T03:07:10.198Z,21.75
2023-02-11T03:09:47.674Z,22.27
2023-02-11T03:12:15.722Z,23.90
2023-02-11T03:14:43.437Z,28.35
2023-02-11T03:17:10.954Z,23.27
2023-02-11T03:19:44.223Z,24.25
2023-02-11T03:22:40.716Z,19.85
2023-02-11T03:25:08.697Z,18.38
2023-02-11T03:27:51.154Z,15.23
2023-02-11T03:30:33.148Z,19.23
2023-02-11T03:33:15.494Z,18.50
2023-02-11T03:35:50.800Z,20.27
2023-02-11T03:38:32.971Z,16.83
2023-02-11T03:41:02.405Z,23.52
2023-02-11T03:43:34.493Z,20.52
2023-02-11T03:46:05.709Z,20.67
2023-02-11T03:48:37.880Z,25.42
2023-02-11T03:51:09.449Z,24.30
2023-02-11T03:53:38.947Z,29.50
2023-02-11T03:56:09.363Z,19.95
2023-02-11T03:58:36.151Z,13.88
2023-02-11T04:01:05.209Z,30.65
2023-02-11T04:03:33.142Z,32.85
2023-02-11T04:05:59.960Z,26.92
2023-02-11T04:08:26.754Z,22.50
2023-02-11T04:10:56.698Z,25.73
2023-02-11T04:13:23.482Z,26.48
2023-02-11T04:15:51.004Z,29.63
2023-02-11T04:18:18.057Z,26.17
2023-02-11T04:20:44.846Z,25.05
2023-02-11T04:23:11.597Z,19.35
2023-02-11T04:25:38.394Z,20.50
2023-02-11T04:28:05.286Z,29.52
2023-02-11T04:30:32.125Z,26.25
2023-02-11T04:32:59.198Z,25.67
2023-02-11T04:35:26.059Z,31.00
2023-02-11T04:37:52.871Z,28.63
2023-02-11T04:40:19.749Z,237.40
2023-02-11T04:42:46.565Z,85.75
2023-02-11T04:45:15.878Z,455.15
2023-02-11T04:47:42.698Z,132.50
2023-02-11T04:50:09.647Z,296.70
2023-02-11T04:52:36.421Z,112.70
2023-02-11T04:55:03.337Z,45.03
2023-02-11T04:57:30.164Z,66.43
2023-02-11T05:00:00.022Z,23.98
2023-02-11T05:02:26.940Z,27.40
2023-02-11T05:04:53.697Z,24.58
2023-02-11T05:07:22.902Z,22.98
2023-02-11T05:09:49.669Z,21.75
2023-02-11T05:12:16.581Z,33.95
2023-02-11T05:14:43.367Z,90.57
2023-02-11T05:17:11.282Z,17.83
2023-02-11T05:19:38.150Z,19.42
2023-02-11T05:22:05.068Z,23.33
2023-02-11T05:24:32.435Z,29.63
2023-02-11T05:26:59.718Z,23.35
2023-02-11T05:29:26.527Z,18.88
2023-02-11T05:31:53.562Z,29.27
2023-02-11T05:34:20.435Z,17.92
2023-02-11T05:36:47.239Z,24.88
2023-02-11T05:39:14.054Z,28.67
2023-02-11T05:41:40.862Z,23.70
2023-02-11T05:44:07.649Z,22.45
2023-02-11T05:46:34.483Z,42.55
2023-02-11T05:49:01.379Z,37.78
2023-02-11T05:51:28.179Z,40.75
2023-02-11T05:53:57.403Z,19.85
2023-02-11T05:56:24.230Z,25.05
2023-02-11T05:58:51.115Z,25.27
2023-02-11T06:01:17.860Z,31.38
2023-02-11T06:03:44.728Z,25.33
2023-02-11T06:06:12.809Z,18.40
2023-02-11T06:08:41.356Z,20.23
2023-02-11T06:11:08.154Z,28.75
2023-02-11T06:13:36.125Z,24.63
2023-02-11T06:16:03.537Z,26.58
2023-02-11T06:18:30.616Z,26.90
2023-02-11T06:20:57.425Z,27.00
2023-02-11T06:23:24.312Z,22.13
2023-02-11T06:25:52.585Z,23.48
2023-02-11T06:28:19.922Z,38.88
2023-02-11T06:30:46.751Z,48.85
2023-02-11T06:33:16.477Z,53.25
2023-02-11T06:35:43.316Z,70.13
2023-02-11T06:38:10.245Z,73.97
2023-02-11T06:40:37.130Z,90.97
2023-02-11T06:43:03.938Z,111.93
2023-02-11T06:45:30.736Z,59.85
2023-02-11T06:47:59.166Z,78.07
2023-02-11T06:50:25.937Z,65.72
2023-02-11T06:52:52.748Z,93.68
2023-02-11T06:55:19.617Z,64.38
2023-02-11T06:57:46.426Z,168.65
2023-02-11T07:00:13.934Z,166.10
2023-02-11T07:02:40.697Z,381.00
2023-02-11T07:05:11.147Z,260.50
2023-02-11T07:07:38.007Z,177.43
2023-02-11T07:10:05.838Z,142.30
2023-02-11T07:12:32.745Z,102.57
2023-02-11T07:14:59.552Z,79.15
2023-02-11T07:17:26.432Z,62.05
2023-02-11T07:19:53.681Z,27.05
2023-02-11T07:22:20.543Z,29.83
2023-02-11T07:24:47.337Z,24.25
2023-02-11T07:27:14.169Z,15.90
2023-02-11T07:29:42.610Z,21.02
2023-02-11T07:32:09.568Z,24.63
2023-02-11T07:34:36.477Z,19.77
2023-02-11T07:37:06.078Z,26.23
2023-02-11T07:39:32.913Z,16.38
2023-02-11T07:42:01.515Z,30.95
2023-02-11T07:44:28.451Z,39.13
2023-02-11T07:46:55.281Z,45.30
2023-02-11T07:49:22.204Z,27.42
2023-02-11T07:51:51.045Z,26.60
2023-02-11T07:54:18.233Z,19.25
2023-02-11T07:56:45.036Z,29.00
2023-02-11T07:59:12.491Z,35.22
2023-02-11T08:01:39.959Z,20.98
2023-02-11T08:04:06.827Z,32.85
2023-02-11T08:06:34.884Z,25.65
2023-02-11T08:09:07.242Z,23.65
2023-02-11T08:11:34.084Z,41.28
2023-02-11T08:14:01.169Z,39.75
2023-02-11T08:16:33.568Z,33.22
2023-02-11T08:19:03.130Z,54.50
2023-02-11T08:21:30.022Z,29.98
2023-02-11T08:23:57.242Z,43.42
2023-02-11T08:26:28.700Z,32.40
2023-02-11T08:28:56.776Z,45.65
2023-02-11T08:31:26.883Z,38.88
2023-02-11T08:33:54.882Z,53.88
2023-02-11T08:36:25.472Z,40.58
2023-02-11T08:39:05.645Z,55.70
2023-02-11T08:41:39.253Z,71.28
2023-02-11T08:44:06.261Z,54.08
2023-02-11T08:46:33.286Z,89.30
2023-02-11T08:49:00.181Z,64.65
2023-02-11T08:51:30.364Z,46.25
2023-02-11T08:53:57.738Z,62.50
2023-02-11T08:56:24.953Z,42.42
2023-02-11T08:58:52.537Z,61.63
2023-02-11T09:01:23.367Z,38.08
2023-02-11T09:03:50.748Z,38.63
2023-02-11T09:06:18.748Z,54.55
2023-02-11T09:08:49.416Z,50.88
2023-02-11T09:11:18.199Z,47.22
2023-02-11T09:13:45.286Z,53.13
2023-02-11T09:16:22.157Z,53.67
2023-02-11T09:18:49.782Z,48.58
2023-02-11T09:21:18.050Z,34.25
2023-02-11T09:23:47.627Z,53.05
2023-02-11T09:26:21.789Z,41.92
2023-02-11T09:28:50.299Z,50.00
2023-02-11T09:31:20.612Z,46.40
2023-02-11T09:33:51.192Z,43.38
2023-02-11T09:36:20.748Z,40.40
2023-02-11T09:38:47.877Z,38.03
2023-02-11T09:41:23.513Z,51.78
2023-02-11T09:43:58.524Z,46.03
2023-02-11T09:46:27.475Z,50.35
2023-02-11T09:48:56.282Z,48.38
2023-02-11T09:51:47.382Z,50.05
2023-02-11T09:54:37.423Z,58.67
2023-02-11T09:57:19.471Z,54.15
2023-02-11T09:59:53.509Z,62.42
2023-02-11T10:02:24.614Z,63.47
2023-02-11T10:05:00.037Z,51.25
2023-02-11T10:07:47.193Z,66.70
2023-02-11T10:10:25.935Z,49.30
2023-02-11T10:13:20.061Z,62.15
2023-02-11T10:16:14.766Z,57.10
2023-02-11T10:19:13.261Z,43.45
2023-02-11T10:22:10.856Z,55.60
2023-02-11T10:24:38.919Z,45.15
2023-02-11T10:27:24.469Z,48.53
2023-02-11T10:30:06.852Z,43.28
2023-02-11T10:32:57.246Z,46.95
2023-02-11T10:35:24.561Z,50.90
2023-02-11T10:37:51.456Z,49.95
2023-02-11T10:40:21.914Z,48.33
2023-02-11T10:42:57.625Z,38.40
2023-02-11T10:45:33.368Z,47.78
2023-02-11T10:48:03.319Z,42.63
2023-02-11T10:50:34.999Z,43.85
2023-02-11T10:53:20.506Z,75.00
2023-02-11T10:55:54.651Z,44.72
2023-02-11T10:58:43.248Z,45.13
2023-02-11T11:01:23.902Z,36.70
2023-02-11T11:03:52.946Z,53.28
2023-02-11T11:06:32.128Z,52.47
2023-02-11T11:08:59.189Z,46.13
2023-02-11T11:11:26.941Z,37.67
2023-02-11T11:13:53.715Z,47.08
2023-02-11T11:16:28.276Z,46.13
2023-02-11T11:19:07.398Z,43.88
2023-02-11T11:21:34.417Z,47.65
2023-02-11T11:24:03.701Z,41.95
2023-02-11T11:26:44.963Z,43.15
2023-02-11T11:29:36.830Z,47.38
2023-02-11T11:32:23.858Z,42.95
2023-02-11T11:34:55.624Z,44.33
2023-02-11T11:37:35.506Z,47.33
2023-02-11T11:40:09.721Z,42.22
2023-02-11T11:42:39.127Z,31.90
2023-02-11T11:45:22.898Z,41.47
2023-02-11T11:48:06.632Z,35.85
2023-02-11T11:50:36.244Z,51.28
2023-02-11T11:53:31.187Z,43.70
2023-02-11T11:56:09.187Z,52.72
2023-02-11T11:58:36.045Z,45.13
2023-02-11T12:01:17.935Z,47.55
2023-02-11T12:03:50.361Z,45.65
2023-02-11T12:06:19.922Z,48.15
2023-02-11T12:09:03.721Z,48.08
2023-02-11T12:11:45.575Z,40.60
2023-02-11T12:14:42.897Z,49.25
2023-02-11T12:17:28.314Z,39.63
2023-02-11T12:20:18.105Z,48.92
2023-02-11T12:22:53.933Z,39.40
2023-02-11T12:25:46.548Z,47.88
2023-02-11T12:28:22.422Z,44.97
2023-02-11T12:31:12.134Z,54.33
2023-02-11T12:33:58.048Z,41.47
2023-02-11T12:37:07.730Z,46.60
2023-02-11T12:39:50.483Z,58.40
2023-02-11T12:42:51.890Z,41.53
2023-02-11T12:45:33.796Z,46.00
2023-02-11T12:48:03.367Z,43.70
2023-02-11T12:50:53.576Z,43.08
2023-02-11T12:53:32.065Z,46.03
2023-02-11T12:56:05.559Z,36.38
2023-02-11T12:58:44.443Z,36.80
2023-02-11T13:01:30.702Z,45.22
2023-02-11T13:04:30.827Z,46.05
2023-02-11T13:07:15.934Z,40.20
2023-02-11T13:09:53.198Z,38.95
2023-02-11T13:12:38.840Z,39.83
2023-02-11T13:15:10.309Z,52.97
2023-02-11T13:17:47.022Z,35.38
2023-02-11T13:20:34.754Z,38.97
2023-02-11T13:23:17.774Z,63.13
2023-02-11T13:26:16.731Z,39.05
2023-02-11T13:29:02.459Z,45.92
2023-02-11T13:31:30.243Z,47.78
2023-02-11T13:33:57.287Z,49.67
2023-02-11T13:36:33.013Z,40.45
2023-02-11T13:39:19.383Z,44.25
2023-02-11T13:41:52.170Z,55.28
2023-02-11T13:44:23.835Z,40.47
2023-02-11T13:47:05.318Z,40.28
2023-02-11T13:49:37.018Z,48.65
2023-02-11T13:52:06.929Z,68.10
2023-02-11T13:54:38.264Z,45.25
2023-02-11T13:57:20.317Z,42.78
2023-02-11T13:59:49.053Z,48.07
2023-02-11T14:02:51.154Z,41.92
2023-02-11T14:05:45.063Z,39.90
2023-02-11T14:08:30.364Z,40.55
2023-02-11T14:11:01.679Z,37.80
2023-02-11T14:13:50.071Z,51.67
2023-02-11T14:16:35.590Z,47.70
2023-02-11T14:19:06.239Z,46.00
2023-02-11T14:21:42.275Z,43.05
2023-02-11T14:24:12.997Z,44.08
2023-02-11T14:26:49.018Z,41.35
2023-02-11T14:29:56.411Z,41.63
2023-02-11T14:32:49.077Z,34.67
2023-02-11T14:35:34.036Z,29.52
2023-02-11T14:38:01.905Z,38.40
2023-02-11T14:40:40.255Z,49.35
2023-02-11T14:43:15.036Z,42.28
2023-02-11T14:45:45.330Z,100.82
2023-02-11T14:48:20.478Z,38.33
2023-02-11T14:50:54.031Z,48.95
2023-02-11T14:53:23.879Z,39.63
2023-02-11T14:55:52.625Z,47.05
2023-02-11T14:58:28.566Z,30.20
2023-02-11T15:01:02.219Z,33.35
2023-02-11T15:03:43.360Z,37.22
2023-02-11T15:06:33.825Z,33.28
2023-02-11T15:09:17.006Z,34.40
2023-02-11T15:11:47.746Z,51.22
2023-02-11T15:14:36.399Z,45.03
2023-02-11T15:17:07.730Z,40.67
2023-02-11T15:19:38.389Z,43.38
2023-02-11T15:22:21.930Z,39.38
2023-02-11T15:25:10.293Z,42.53
2023-02-11T15:27:42.406Z,48.75
2023-02-11T15:30:21.448Z,49.42
2023-02-11T15:32:58.082Z,44.20
2023-02-11T15:35:28.674Z,43.70
2023-02-11T15:37:57.469Z,40.28
2023-02-11T15:40:37.403Z,41.60
2023-02-11T15:43:09.079Z,62.75
2023-02-11T15:45:38.816Z,50.80
2023-02-11T15:48:10.778Z,43.80
2023-02-11T15:50:40.689Z,47.25
2023-02-11T15:53:22.745Z,46.60
2023-02-11T15:55:51.867Z,48.00
2023-02-11T15:58:20.165Z,61.33
2023-02-11T16:00:50.389Z,46.97
2023-02-11T16:03:25.285Z,72.22
2023-02-11T16:05:52.215Z,54.90
2023-02-11T16:08:24.447Z,54.58
2023-02-11T16:10:58.428Z,45.75
2023-02-11T16:13:28.308Z,50.58
2023-02-11T16:16:03.993Z,46.95
2023-02-11T16:18:38.802Z,72.13
2023-02-11T16:21:14.274Z,51.85
2023-02-11T16:23:44.726Z,49.97
2023-02-11T16:26:34.437Z,54.58
2023-02-11T16:29:07.779Z,60.35
2023-02-11T16:31:41.015Z,47.00
2023-02-11T16:34:16.880Z,49.25
2023-02-11T16:36:47.775Z,42.40
2023-02-11T16:39:16.795Z,48.25
2023-02-11T16:41:46.510Z,70.03
2023-02-11T16:44:13.577Z,54.17
2023-02-11T16:46:40.597Z,55.33
2023-02-11T16:49:17.230Z,59.28
2023-02-11T16:51:52.561Z,63.55
2023-02-11T16:54:22.893Z,50.75
2023-02-11T16:56:49.749Z,56.40
2023-02-11T16:59:16.617Z,61.97
2023-02-11T17:01:45.044Z,79.50
2023-02-11T17:04:20.117Z,50.45
2023-02-11T17:06:48.147Z,52.55
2023-02-11T17:09:23.635Z,42.80
2023-02-11T17:50:37.022Z,50.47
2023-02-11T17:53:03.895Z,53.88
2023-02-11T17:55:33.908Z,70.60
2023-02-11T17:58:01.137Z,63.80
2023-02-11T18:00:30.992Z,46.03
2023-02-11T18:03:02.749Z,54.25
2023-02-11T18:05:37.249Z,70.65
2023-02-11T18:08:08.538Z,55.65
2023-02-11T18:10:35.340Z,53.65
2023-02-11T18:13:03.441Z,61.40
2023-02-11T18:15:30.232Z,60.10
2023-02-11T18:17:57.080Z,56.70
2023-02-11T18:20:23.929Z,56.33
2023-02-11T18:22:50.851Z,55.88
2023-02-11T18:25:18.779Z,68.88
2023-02-11T18:27:46.347Z,54.67
2023-02-11T18:30:20.754Z,57.10
2023-02-11T18:32:47.614Z,54.10
2023-02-11T18:35:15.902Z,57.90
2023-02-11T18:37:43.310Z,55.58
2023-02-11T18:40:11.708Z,53.63
2023-02-11T18:42:39.279Z,50.72
2023-02-11T18:45:09.576Z,61.35
2023-02-11T18:47:55.077Z,63.58
2023-02-11T18:50:22.139Z,53.42
2023-02-11T18:52:49.698Z,57.47
2023-02-11T18:55:16.628Z,62.30
2023-02-11T18:57:43.515Z,50.92
2023-02-11T19:00:11.177Z,50.63
2023-02-11T19:02:38.143Z,59.65
2023-02-11T19:05:06.610Z,59.22
2023-02-11T19:07:33.480Z,53.33
2023-02-11T19:10:00.383Z,61.28
2023-02-11T19:12:27.216Z,54.25
2023-02-11T19:14:54.114Z,52.00
2023-02-11T19:17:21.087Z,59.80
2023-02-11T19:19:47.901Z,102.93
2023-02-11T19:22:14.693Z,70.70
2023-02-11T19:24:44.789Z,47.47
2023-02-11T19:27:11.890Z,84.13
2023-02-11T19:29:39.059Z,56.15
2023-02-11T19:32:09.718Z,47.83
2023-02-11T19:34:41.288Z,66.93
2023-02-11T19:37:10.812Z,51.80
2023-02-11T19:39:37.753Z,55.45
2023-02-11T19:42:04.841Z,50.22
2023-02-11T19:44:32.519Z,51.83
2023-02-11T19:46:59.994Z,54.05
2023-02-11T19:49:26.857Z,56.60
2023-02-11T19:51:55.420Z,49.78
2023-02-11T19:54:23.190Z,48.67
2023-02-11T19:56:50.265Z,54.85
2023-02-11T19:59:17.166Z,64.75
2023-02-11T20:01:47.514Z,54.78
2023-02-11T20:04:18.066Z,65.18
2023-02-11T20:06:45.005Z,49.85
2023-02-11T20:09:14.311Z,60.28
2023-02-11T20:11:41.636Z,55.65
2023-02-11T20:14:10.498Z,50.22
2023-02-11T20:16:48.249Z,53.97
2023-02-11T20:19:21.460Z,54.83
2023-02-11T20:24:17.434Z,62.92
2023-02-11T20:26:45.256Z,45.65
2023-02-11T20:29:13.987Z,49.13
2023-02-11T20:31:41.281Z,58.67
2023-02-11T20:34:08.217Z,48.78
2023-02-11T20:36:35.729Z,60.03
2023-02-11T20:39:05.003Z,62.45
2023-02-11T20:41:36.480Z,60.13
2023-02-11T20:44:06.792Z,60.78
2023-02-11T20:46:34.627Z,56.70
2023-02-11T20:49:02.022Z,49.58
2023-02-11T20:51:31.425Z,58.45
2023-02-11T20:53:58.740Z,49.03
2023-02-11T20:56:28.830Z,53.25
2023-02-11T20:58:58.150Z,57.30
2023-02-11T21:01:30.923Z,53.50
2023-02-11T21:06:45.486Z,60.78
2023-02-11T21:09:15.165Z,59.15
2023-02-11T21:11:43.020Z,57.05
2023-02-11T21:14:11.112Z,62.63
2023-02-11T21:16:38.770Z,51.58
2023-02-11T21:19:06.254Z,59.47
2023-02-11T21:21:36.033Z,58.55
2023-02-11T21:24:05.360Z,50.60
2023-02-11T21:26:32.755Z,50.22
2023-02-11T21:28:59.524Z,54.45
2023-02-11T21:31:28.996Z,55.00
2023-02-11T21:33:56.704Z,52.25
2023-02-11T21:36:24.147Z,57.88
2023-02-11T21:38:51.255Z,57.33
2023-02-11T21:41:22.380Z,49.97
2023-02-11T21:43:49.874Z,51.28
2023-02-11T21:46:17.865Z,51.63
2023-02-11T21:48:44.790Z,61.63
2023-02-11T21:51:15.175Z,53.88
2023-02-11T21:53:42.080Z,60.08
2023-02-11T21:56:13.034Z,44.65
2023-02-11T21:58:39.855Z,63.50
2023-02-11T22:01:20.192Z,53.95
2023-02-11T22:03:47.327Z,56.00
2023-02-11T22:06:27.449Z,64.10
2023-02-11T22:08:54.935Z,59.95
2023-02-11T22:11:22.139Z,53.05
2023-02-11T22:13:53.838Z,58.38
2023-02-11T22:16:21.044Z,51.35
2023-02-11T22:18:48.091Z,57.50
2023-02-11T22:21:17.806Z,59.15
2023-02-11T22:23:48.342Z,65.30
2023-02-11T22:26:18.470Z,70.53
2023-02-11T22:28:48.894Z,77.57
2023-02-11T22:31:23.104Z,82.03
2023-02-11T22:33:50.179Z,73.75
2023-02-11T22:36:28.931Z,69.88
2023-02-11T22:38:56.590Z,72.38
2023-02-11T22:41:24.732Z,75.38
2023-02-11T22:43:51.835Z,68.35
2023-02-11T22:46:19.595Z,69.57
2023-02-11T22:48:47.197Z,77.85
2023-02-11T22:51:17.599Z,68.72
2023-02-11T22:53:44.573Z,65.72
2023-02-11T22:56:15.587Z,85.80
2023-02-11T22:58:43.088Z,74.05
2023-02-11T23:01:10.395Z,71.45
2023-02-11T23:03:37.313Z,65.88
2023-02-11T23:06:04.634Z,65.10
2023-02-11T23:08:32.520Z,59.65
2023-02-11T23:11:29.435Z,65.13
2023-02-11T23:13:58.405Z,64.80
2023-02-11T23:16:28.066Z,56.80
2023-02-11T23:18:55.154Z,52.33
2023-02-11T23:21:25.706Z,66.78
2023-02-11T23:23:58.489Z,61.13
2023-02-11T23:26:25.802Z,57.20
2023-02-11T23:28:52.772Z,52.92
2023-02-11T23:31:26.546Z,52.75
2023-02-11T23:33:54.007Z,54.55
2023-02-11T23:36:22.386Z,55.63
2023-02-11T23:38:49.573Z,55.25
2023-02-11T23:41:17.132Z,56.80
